Time;durP1;ratioP1;P1;durP2;ratioP2;P2;SDS_P1;SDS_P2;PMS_P1;PMS_P2;Temp;Humidity;BMP_temperature;BMP_pressure;BME280_temperature;BME280_humidity;BME280_pressure;Samples;Min_cycle;Max_cycle;Signal;HPM_P1;HPM_P2
2023/05/11 00:03:17;;;;;;;6.57;3.85;;;11.80;99.90;;;;;;10359592;28;20209;-77
2023/05/11 00:08:38;;;;;;;7.65;4.30;;;11.80;99.90;;;;;;10359860;28;20193;-77
2023/05/11 00:13:59;;;;;;;7.20;4.10;;;11.70;99.90;;;;;;10364217;28;20229;-77
2023/05/11 00:19:20;;;;;;;5.15;2.88;;;11.60;99.90;;;;;;10397289;28;20483;-77
2023/05/11 00:24:41;;;;;;;6.55;3.42;;;11.60;99.90;;;;;;10369107;28;20475;-78
2023/05/11 00:30:03;;;;;;;6.47;3.40;;;11.60;99.90;;;;;;10364861;28;20284;-76
2023/05/11 00:35:24;;;;;;;6.32;3.40;;;11.60;99.90;;;;;;10370518;28;20547;-77
2023/05/11 00:40:45;;;;;;;7.93;3.75;;;11.60;99.90;;;;;;10357139;28;20189;-77
2023/05/11 00:46:06;;;;;;;8.10;3.42;;;11.50;99.90;;;;;;10343771;28;20211;-77
2023/05/11 00:51:27;;;;;;;5.28;3.42;;;11.40;99.90;;;;;;10396804;28;20205;-77
2023/05/11 00:56:48;;;;;;;7.97;3.38;;;11.40;99.90;;;;;;10375200;28;20216;-76
2023/05/11 01:02:10;;;;;;;5.43;3.30;;;11.40;99.90;;;;;;10357496;28;20194;-77
2023/05/11 01:07:33;;;;;;;4.88;3.15;;;11.40;99.90;;;;;;10358832;28;20206;-76
2023/05/11 01:13:00;;;;;;;7.13;3.58;;;11.30;99.90;;;;;;10357424;28;20222;-77
2023/05/11 01:18:29;;;;;;;5.47;3.80;;;11.20;99.90;;;;;;10362692;28;20191;-77
2023/05/11 01:24:35;;;;;;;6.60;3.00;;;11.10;99.90;;;;;;10369635;28;20288;-75
2023/05/11 01:30:27;;;;;;;7.93;3.58;;;11.10;99.90;;;;;;10354519;28;20245;-77
2023/05/11 01:35:53;;;;;;;7.50;3.57;;;11.20;99.90;;;;;;10354742;28;20300;-76
2023/05/11 01:41:18;;;;;;;5.22;3.30;;;11.10;99.90;;;;;;10354675;28;20198;-78
2023/05/11 01:46:40;;;;;;;6.18;3.22;;;11.00;99.90;;;;;;10358090;28;20203;-76
2023/05/11 01:52:02;;;;;;;6.68;3.05;;;10.90;99.90;;;;;;10367742;28;20270;-76
2023/05/11 01:57:24;;;;;;;5.80;3.50;;;10.90;99.90;;;;;;10394510;28;20208;-76
2023/05/11 02:02:47;;;;;;;6.65;3.90;;;10.80;99.90;;;;;;10354417;28;20199;-77
2023/05/11 02:08:09;;;;;;;5.73;3.73;;;10.70;99.90;;;;;;10359859;28;20208;-77
2023/05/11 02:13:33;;;;;;;5.77;3.63;;;10.70;99.90;;;;;;10354379;28;20236;-75
2023/05/11 02:18:56;;;;;;;4.00;3.28;;;10.70;99.90;;;;;;10378505;28;20199;-77
2023/05/11 02:24:18;;;;;;;5.67;3.10;;;10.70;99.90;;;;;;10364288;28;20206;-77
2023/05/11 02:29:39;;;;;;;4.70;3.05;;;10.60;99.90;;;;;;10360835;28;20236;-76
2023/05/11 02:35:10;;;;;;;7.15;3.50;;;10.50;99.90;;;;;;10394147;28;20268;-76
2023/05/11 02:40:37;;;;;;;5.43;3.80;;;10.50;99.90;;;;;;10394177;28;20217;-76
2023/05/11 02:46:05;;;;;;;5.77;3.50;;;10.50;99.90;;;;;;10366432;28;20276;-76
2023/05/11 02:51:32;;;;;;;6.13;4.07;;;10.40;99.90;;;;;;10348078;28;20243;-77
2023/05/11 02:56:55;;;;;;;9.77;4.73;;;10.40;99.90;;;;;;10393680;28;20583;-77
2023/05/11 03:02:17;;;;;;;8.63;5.83;;;10.40;99.90;;;;;;10388744;28;20226;-77
2023/05/11 03:07:38;;;;;;;7.50;4.60;;;10.40;99.90;;;;;;10379405;28;20206;-77
2023/05/11 03:13:01;;;;;;;5.88;3.90;;;10.40;99.90;;;;;;10393932;28;20208;-77
2023/05/11 03:18:24;;;;;;;4.28;3.10;;;10.30;99.90;;;;;;10369887;28;20200;-77
2023/05/11 03:23:47;;;;;;;7.90;3.70;;;10.30;99.90;;;;;;10344563;28;21967;-77
2023/05/11 03:29:10;;;;;;;9.37;4.10;;;10.30;99.90;;;;;;10383332;28;20243;-76
2023/05/11 03:34:32;;;;;;;5.32;3.72;;;10.30;99.90;;;;;;10381529;28;20546;-73
2023/05/11 03:39:57;;;;;;;5.00;3.40;;;10.20;99.90;;;;;;10400309;28;20409;-76
2023/05/11 03:45:20;;;;;;;8.07;3.40;;;10.20;99.90;;;;;;10381455;28;20206;-73
2023/05/11 03:50:42;;;;;;;5.00;3.30;;;10.30;99.90;;;;;;10361833;28;20216;-72
2023/05/11 03:56:06;;;;;;;10.45;4.20;;;10.30;99.90;;;;;;10399592;28;20224;-72
2023/05/11 04:01:28;;;;;;;4.67;3.43;;;10.30;99.90;;;;;;10380018;28;20210;-73
2023/05/11 04:06:50;;;;;;;6.77;4.00;;;10.30;99.90;;;;;;10366454;28;20214;-76
2023/05/11 04:12:14;;;;;;;6.07;3.65;;;10.30;99.90;;;;;;10361669;28;20190;-74
2023/05/11 04:17:35;;;;;;;7.68;3.90;;;10.40;99.90;;;;;;10369322;28;20258;-74
2023/05/11 04:22:57;;;;;;;9.53;4.27;;;10.40;99.90;;;;;;10380335;28;20205;-72
2023/05/11 04:28:18;;;;;;;6.60;4.03;;;10.40;99.90;;;;;;10380812;28;20607;-75
2023/05/11 04:33:39;;;;;;;7.47;4.43;;;10.40;99.90;;;;;;10397934;28;20323;-76
2023/05/11 04:39:03;;;;;;;8.33;4.27;;;10.50;99.90;;;;;;10398036;28;20214;-74
2023/05/11 04:44:44;;;;;;;12.17;5.10;;;10.50;99.90;;;;;;10389563;28;20221;-76
2023/05/11 04:50:05;;;;;;;11.90;4.73;;;10.50;99.90;;;;;;10357476;28;20422;-75
2023/05/11 04:55:28;;;;;;;7.50;4.50;;;10.60;99.90;;;;;;10356369;28;20227;-75
2023/05/11 05:00:51;;;;;;;9.90;3.90;;;10.70;99.90;;;;;;10356186;28;20208;-76
2023/05/11 05:06:13;;;;;;;6.88;3.15;;;10.70;99.90;;;;;;10356232;28;20403;-77
2023/05/11 05:11:33;;;;;;;7.57;3.93;;;10.80;99.90;;;;;;10356387;28;20193;-75
2023/05/11 05:16:55;;;;;;;9.47;4.30;;;10.90;99.90;;;;;;10367932;28;20223;-74
2023/05/11 05:22:16;;;;;;;8.00;3.77;;;11.00;99.90;;;;;;10383636;28;20410;-74
2023/05/11 05:27:37;;;;;;;7.70;3.83;;;11.10;99.90;;;;;;10364448;28;20581;-76
2023/05/11 05:33:01;;;;;;;6.63;3.87;;;11.10;99.90;;;;;;10379791;28;20252;-76
2023/05/11 05:38:24;;;;;;;7.80;3.17;;;11.30;99.90;;;;;;10369224;28;20260;-73
2023/05/11 05:43:47;;;;;;;7.50;4.10;;;11.40;99.90;;;;;;10341017;28;20192;-77
2023/05/11 05:49:09;;;;;;;8.80;4.37;;;11.40;99.90;;;;;;10346627;28;20429;-77
2023/05/11 05:54:31;;;;;;;7.60;3.45;;;11.60;99.90;;;;;;10387381;28;20581;-77
2023/05/11 05:59:52;;;;;;;7.22;3.97;;;11.80;99.90;;;;;;10388473;28;20435;-77
2023/05/11 06:05:13;;;;;;;9.05;4.28;;;12.00;99.90;;;;;;10353881;28;20201;-76
2023/05/11 06:10:35;;;;;;;15.00;4.18;;;12.30;99.90;;;;;;10355184;28;20203;-78
2023/05/11 06:15:57;;;;;;;5.70;3.33;;;12.60;99.90;;;;;;10353756;28;20227;-77
2023/05/11 06:21:23;;;;;;;8.77;3.50;;;12.90;99.90;;;;;;10373325;28;20206;-85
2023/05/11 06:26:44;;;;;;;6.40;3.47;;;13.40;99.90;;;;;;10386738;28;20251;-80
2023/05/11 06:32:07;;;;;;;12.05;3.53;;;13.80;99.90;;;;;;10371356;28;20274;-80
2023/05/11 06:37:29;;;;;;;6.93;3.70;;;14.50;99.90;;;;;;10359916;28;20230;-79
2023/05/11 06:42:50;;;;;;;6.40;3.75;;;15.00;99.90;;;;;;10352264;28;20411;-76
2023/05/11 06:48:12;;;;;;;10.80;3.40;;;15.80;99.90;;;;;;10371066;28;20228;-81
2023/05/11 06:53:33;;;;;;;7.85;3.55;;;16.50;99.90;;;;;;10374693;28;20284;-80
2023/05/11 06:58:54;;;;;;;5.50;3.38;;;16.90;99.90;;;;;;10375213;28;20558;-79
2023/05/11 07:04:16;;;;;;;6.80;3.60;;;17.50;99.90;;;;;;10374579;28;20474;-80
2023/05/11 07:09:37;;;;;;;15.65;3.55;;;17.70;99.90;;;;;;10383300;28;20193;-80
2023/05/11 07:14:59;;;;;;;5.70;3.33;;;17.70;99.90;;;;;;10364101;28;20266;-80
2023/05/11 07:20:20;;;;;;;6.55;3.45;;;18.40;99.90;;;;;;10402033;28;20203;-78
2023/05/11 07:25:42;;;;;;;8.43;3.55;;;19.10;99.90;;;;;;10358542;28;20213;-82
2023/05/11 07:31:03;;;;;;;5.28;3.65;;;19.40;99.90;;;;;;10402031;28;20232;-78
2023/05/11 07:36:24;;;;;;;8.98;3.78;;;19.70;99.90;;;;;;10396593;28;20239;-78
2023/05/11 07:41:46;;;;;;;11.23;3.13;;;19.60;99.90;;;;;;10409018;28;20189;-78
2023/05/11 07:47:07;;;;;;;13.23;3.35;;;20.30;99.90;;;;;;10397448;28;20259;-76
2023/05/11 07:52:28;;;;;;;13.80;3.28;;;20.20;99.90;;;;;;10399207;28;20201;-77
2023/05/11 07:57:51;;;;;;;7.47;2.70;;;20.30;99.90;;;;;;10398295;28;20450;-77
2023/05/11 08:03:13;;;;;;;4.32;2.90;;;20.90;99.90;;;;;;10363125;28;20230;-77
2023/05/11 08:08:34;;;;;;;5.80;2.38;;;21.00;99.90;;;;;;10385464;28;20197;-77
2023/05/11 08:13:55;;;;;;;6.60;3.25;;;21.20;99.90;;;;;;10381061;28;20232;-77
2023/05/11 08:19:16;;;;;;;4.30;2.70;;;21.50;99.90;;;;;;10384208;28;20205;-78
2023/05/11 08:24:37;;;;;;;6.35;2.90;;;21.70;99.90;;;;;;10355535;28;20206;-78
2023/05/11 08:29:58;;;;;;;7.70;2.67;;;21.70;99.90;;;;;;10382500;28;20321;-77
2023/05/11 08:35:23;;;;;;;8.07;2.85;;;22.40;99.90;;;;;;10376354;28;20232;-78
2023/05/11 08:40:47;;;;;;;6.03;2.95;;;22.30;99.90;;;;;;10364682;28;20212;-76
2023/05/11 08:46:13;;;;;;;3.50;2.38;;;22.30;99.90;;;;;;10393243;28;20213;-76
2023/05/11 08:51:34;;;;;;;6.43;2.65;;;22.70;99.90;;;;;;10377472;28;20201;-77
2023/05/11 08:56:56;;;;;;;9.75;2.25;;;22.90;99.90;;;;;;10392586;28;20235;-78
2023/05/11 09:02:18;;;;;;;8.07;2.47;;;23.10;99.90;;;;;;10393073;28;20208;-78
2023/05/11 09:07:41;;;;;;;6.75;2.65;;;22.70;99.90;;;;;;10354154;28;20213;-76
2023/05/11 09:13:02;;;;;;;4.80;2.35;;;22.70;99.90;;;;;;10352603;28;20204;-76
2023/05/11 09:18:23;;;;;;;8.02;2.28;;;23.30;99.90;;;;;;10367693;28;20658;-75
2023/05/11 09:23:44;;;;;;;6.38;2.08;;;24.30;99.90;;;;;;10352242;28;20232;-75
2023/05/11 09:29:05;;;;;;;5.88;2.20;;;24.40;99.90;;;;;;10354997;28;20291;-74
2023/05/11 09:34:27;;;;;;;5.32;2.92;;;24.00;99.90;;;;;;10370877;28;20483;-78
2023/05/11 09:39:53;;;;;;;5.28;2.53;;;23.80;99.90;;;;;;10378237;28;20209;-73
2023/05/11 09:45:40;;;;;;;2.90;2.03;;;24.20;99.90;;;;;;10392218;28;20197;-74
2023/05/11 09:51:04;;;;;;;5.25;2.63;;;24.70;99.90;;;;;;10351453;28;20419;-77
2023/05/11 09:56:49;;;;;;;10.48;3.45;;;24.60;99.90;;;;;;10390799;28;20520;-78
2023/05/11 10:02:25;;;;;;;5.68;2.03;;;24.40;99.90;;;;;;10391857;28;20231;-77
2023/05/11 10:07:58;;;;;;;7.70;2.47;;;24.90;99.90;;;;;;10385010;28;20213;-79
2023/05/11 10:13:20;;;;;;;15.38;2.20;;;24.70;99.90;;;;;;10406197;28;20208;-75
2023/05/11 10:18:42;;;;;;;7.53;2.50;;;24.50;99.90;;;;;;10377331;28;20266;-80
2023/05/11 10:24:05;;;;;;;5.20;2.05;;;24.60;99.90;;;;;;10346624;28;20262;-78
2023/05/11 10:29:27;;;;;;;7.53;2.42;;;24.30;99.90;;;;;;10368434;28;20261;-80
2023/05/11 10:34:49;;;;;;;5.65;2.33;;;24.80;99.90;;;;;;10365036;28;20418;-79
2023/05/11 10:40:11;;;;;;;19.80;2.80;;;24.80;99.90;;;;;;10352442;28;20208;-81
2023/05/11 10:45:39;;;;;;;8.60;2.10;;;24.10;99.90;;;;;;10347526;28;20218;-77
2023/05/11 10:51:01;;;;;;;10.05;2.03;;;24.10;99.90;;;;;;10368152;28;20389;-81
2023/05/11 10:56:28;;;;;;;4.85;2.00;;;23.70;99.90;;;;;;10392242;28;20232;-81
2023/05/11 11:01:53;;;;;;;4.82;1.83;;;24.30;99.90;;;;;;10391405;28;20272;-76
2023/05/11 11:07:18;;;;;;;6.57;2.88;;;24.30;99.90;;;;;;10374953;28;20209;-77
2023/05/11 11:12:59;;;;;;;4.38;2.30;;;24.40;99.90;;;;;;10406167;28;20256;-79
2023/05/11 11:18:23;;;;;;;8.23;2.42;;;24.10;99.90;;;;;;10384408;28;20206;-85
2023/05/11 11:23:50;;;;;;;5.45;2.35;;;24.40;99.90;;;;;;10376534;28;20213;-81
2023/05/11 11:29:12;;;;;;;3.92;2.00;;;24.30;99.90;;;;;;10409957;28;20299;-78
2023/05/11 11:34:35;;;;;;;6.20;1.95;;;24.20;99.90;;;;;;10384036;28;20236;-77
2023/05/11 11:39:59;;;;;;;5.43;2.08;;;24.60;99.90;;;;;;10410187;28;20201;-75
2023/05/11 11:45:31;;;;;;;6.93;2.60;;;24.50;99.90;;;;;;10393693;28;20196;-79
2023/05/11 11:51:04;;;;;;;4.47;2.35;;;24.50;99.90;;;;;;10361838;28;20277;-80
2023/05/11 11:56:28;;;;;;;3.38;1.60;;;24.40;99.90;;;;;;10394376;28;20461;-77
2023/05/11 12:01:51;;;;;;;3.47;2.15;;;24.30;99.90;;;;;;10392128;28;20186;-76
2023/05/11 12:07:13;;;;;;;4.93;1.90;;;24.00;99.90;;;;;;10395138;28;20206;-78
2023/05/11 12:12:37;;;;;;;8.27;2.28;;;23.90;99.90;;;;;;10396043;28;20377;-78
2023/05/11 12:18:01;;;;;;;4.55;2.10;;;23.90;99.90;;;;;;10382879;28;20241;-78
2023/05/11 12:23:22;;;;;;;4.88;1.98;;;23.90;99.90;;;;;;10355893;28;20218;-79
2023/05/11 12:28:48;;;;;;;3.25;1.83;;;24.00;99.90;;;;;;10369739;28;20205;-75
2023/05/11 12:34:17;;;;;;;5.43;2.17;;;24.00;99.90;;;;;;10367997;28;20232;-75
2023/05/11 12:39:38;;;;;;;7.65;2.40;;;23.50;99.90;;;;;;10352007;28;20213;-77
2023/05/11 12:45:00;;;;;;;3.38;1.90;;;23.30;99.90;;;;;;10352359;28;20212;-76
2023/05/11 12:50:21;;;;;;;6.75;2.30;;;23.70;99.90;;;;;;10365166;28;20213;-76
2023/05/11 12:55:43;;;;;;;3.80;2.38;;;23.50;99.90;;;;;;10416485;28;20224;-77
2023/05/11 13:01:08;;;;;;;3.78;2.40;;;23.10;99.90;;;;;;10409486;28;20375;-77
2023/05/11 13:06:29;;;;;;;3.13;2.15;;;23.20;99.90;;;;;;10423024;28;20193;-76
2023/05/11 13:12:16;;;;;;;3.15;2.13;;;23.20;99.90;;;;;;10436877;28;20200;-77
2023/05/11 13:17:38;;;;;;;3.88;1.92;;;23.20;99.90;;;;;;10396228;28;20249;-78
2023/05/11 13:23:12;;;;;;;2.97;1.75;;;23.00;99.90;;;;;;10414111;28;20208;-80
2023/05/11 13:28:34;;;;;;;6.43;1.98;;;23.10;99.90;;;;;;10395344;28;20213;-78
2023/05/11 13:33:55;;;;;;;4.22;2.17;;;23.00;99.90;;;;;;10407931;28;20225;-84
2023/05/11 13:39:17;;;;;;;4.30;2.03;;;23.10;99.90;;;;;;10402886;28;20395;-78
2023/05/11 13:44:38;;;;;;;4.35;2.13;;;23.10;99.90;;;;;;10394481;28;20263;-76
2023/05/11 13:49:59;;;;;;;3.92;1.88;;;23.10;99.90;;;;;;10382737;28;20253;-80
2023/05/11 13:55:20;;;;;;;4.95;2.00;;;22.80;99.90;;;;;;10415358;28;20231;-78
2023/05/11 14:00:43;;;;;;;4.93;2.08;;;22.70;99.90;;;;;;10407401;28;20220;-77
2023/05/11 14:06:07;;;;;;;9.50;3.05;;;22.40;99.90;;;;;;10378155;28;20212;-78
2023/05/11 14:11:29;;;;;;;3.97;2.38;;;22.40;99.90;;;;;;10410125;28;20363;-79
2023/05/11 14:16:50;;;;;;;9.95;2.90;;;22.20;99.90;;;;;;10393982;28;20249;-82
2023/05/11 14:22:12;;;;;;;6.88;2.20;;;21.90;99.90;;;;;;10411504;28;20204;-79
2023/05/11 14:27:33;;;;;;;5.13;1.88;;;21.70;99.90;;;;;;10408931;28;20499;-78
2023/05/11 14:32:55;;;;;;;6.70;2.47;;;21.60;99.90;;;;;;10407120;28;20232;-82
2023/05/11 14:38:17;;;;;;;5.30;2.20;;;21.30;99.90;;;;;;10390832;28;20523;-78
2023/05/11 14:43:38;;;;;;;8.73;2.17;;;21.30;99.90;;;;;;10409550;28;20467;-78
2023/05/11 14:48:59;;;;;;;5.38;1.95;;;21.20;99.90;;;;;;10403979;28;20507;-82
2023/05/11 14:54:21;;;;;;;8.98;2.88;;;21.10;99.90;;;;;;10389579;28;20785;-79
2023/05/11 14:59:42;;;;;;;2.78;1.92;;;20.70;99.90;;;;;;10423195;28;20276;-74
2023/05/11 15:05:08;;;;;;;7.72;2.45;;;20.80;99.90;;;;;;10363917;28;20218;-77
2023/05/11 15:10:29;;;;;;;8.73;2.00;;;20.70;99.90;;;;;;10449849;28;20227;-79
2023/05/11 15:15:51;;;;;;;5.72;2.38;;;20.60;99.90;;;;;;10420123;28;20226;-78
2023/05/11 15:21:12;;;;;;;5.45;2.20;;;20.50;99.90;;;;;;10355994;28;20220;-76
2023/05/11 15:26:33;;;;;;;4.78;2.10;;;20.30;99.90;;;;;;10352491;28;20194;-77
2023/05/11 15:31:54;;;;;;;18.13;2.72;;;20.30;99.90;;;;;;10361774;28;20259;-77
2023/05/11 15:37:15;;;;;;;4.50;2.00;;;20.30;99.90;;;;;;10360687;28;20218;-78
2023/05/11 15:42:36;;;;;;;3.33;2.22;;;20.20;99.90;;;;;;10360804;28;20201;-78
2023/05/11 15:47:58;;;;;;;8.45;2.85;;;20.30;99.90;;;;;;10368342;28;20201;-80
2023/05/11 15:53:19;;;;;;;5.20;2.65;;;20.00;99.90;;;;;;10405656;28;20200;-80
2023/05/11 15:58:41;;;;;;;6.68;3.45;;;19.90;99.90;;;;;;10392209;28;20231;-77
2023/05/11 16:04:02;;;;;;;7.65;2.30;;;19.80;99.90;;;;;;10388063;28;20273;-77
2023/05/11 16:09:23;;;;;;;7.22;2.95;;;19.70;99.90;;;;;;10358647;28;20554;-79
2023/05/11 16:14:44;;;;;;;6.80;2.80;;;19.70;99.90;;;;;;10359427;28;20229;-80
2023/05/11 16:20:06;;;;;;;2.60;2.08;;;19.70;99.90;;;;;;10361960;28;20495;-79
2023/05/11 16:25:28;;;;;;;5.20;2.03;;;19.60;99.90;;;;;;10395874;28;20247;-79
2023/05/11 16:30:48;;;;;;;7.00;3.45;;;19.60;99.90;;;;;;10399366;28;20440;-79
2023/05/11 16:36:10;;;;;;;5.65;2.63;;;19.50;99.90;;;;;;10364607;28;20229;-80
2023/05/11 16:41:31;;;;;;;9.13;2.38;;;19.50;99.90;;;;;;10358356;28;20189;-79
2023/05/11 16:46:52;;;;;;;6.32;2.97;;;19.40;99.90;;;;;;10361367;28;20455;-79
2023/05/11 16:52:13;;;;;;;6.95;2.53;;;19.20;99.90;;;;;;10370946;28;20193;-77
2023/05/11 16:57:34;;;;;;;4.75;2.50;;;19.10;99.90;;;;;;10397968;28;20392;-80
2023/05/11 17:02:56;;;;;;;3.95;2.50;;;19.00;99.90;;;;;;10384911;28;20565;-78
2023/05/11 17:08:17;;;;;;;5.22;2.85;;;18.90;99.90;;;;;;10357744;28;20194;-80
2023/05/11 17:13:38;;;;;;;8.45;2.50;;;19.00;99.90;;;;;;10357264;28;20261;-79
2023/05/11 17:18:59;;;;;;;7.40;2.17;;;18.90;99.90;;;;;;10369630;28;20454;-79
2023/05/11 17:24:20;;;;;;;5.32;2.63;;;18.80;1.00;;;;;;10355737;28;20202;-78
2023/05/11 17:29:42;;;;;;;7.55;2.30;;;18.70;1.00;;;;;;10381129;28;20261;-78
2023/05/11 17:35:04;;;;;;;5.30;2.78;;;18.70;1.00;;;;;;10395612;28;20538;-78
2023/05/11 17:40:25;;;;;;;11.18;2.60;;;18.40;99.90;;;;;;10397842;28;20375;-78
2023/05/11 17:45:46;;;;;;;6.10;2.47;;;18.30;99.90;;;;;;10394338;28;20281;-79
2023/05/11 17:51:08;;;;;;;5.43;2.22;;;18.20;99.90;;;;;;10361167;28;20201;-79
2023/05/11 17:56:30;;;;;;;4.00;2.33;;;18.10;99.90;;;;;;10396121;28;20535;-78
2023/05/11 18:01:51;;;;;;;10.02;2.40;;;18.00;99.90;;;;;;10385212;28;20205;-76
2023/05/11 18:07:12;;;;;;;6.13;2.90;;;17.90;99.90;;;;;;10357725;28;20194;-78
2023/05/11 18:12:34;;;;;;;5.60;2.40;;;17.80;99.90;;;;;;10361739;28;20190;-77
2023/05/11 18:17:56;;;;;;;5.25;2.50;;;17.70;99.90;;;;;;10365639;28;20230;-77
2023/05/11 18:23:17;;;;;;;7.75;3.40;;;17.70;99.90;;;;;;10362296;28;20439;-79
2023/05/11 18:28:38;;;;;;;11.27;4.38;;;17.60;99.90;;;;;;10378803;28;20205;-79
2023/05/11 18:33:59;;;;;;;10.68;5.00;;;17.50;99.90;;;;;;10367978;28;20204;-77
2023/05/11 18:39:20;;;;;;;11.57;6.63;;;17.40;99.90;;;;;;10368912;28;20435;-76
2023/05/11 18:44:42;;;;;;;11.00;6.22;;;17.30;99.90;;;;;;10404711;28;20231;-79
2023/05/11 18:50:03;;;;;;;10.15;6.65;;;17.30;99.90;;;;;;10397974;28;20208;-78
2023/05/11 18:55:24;;;;;;;12.38;7.65;;;17.10;99.90;;;;;;10373532;28;20542;-79
2023/05/11 19:00:47;;;;;;;10.98;6.88;;;17.00;99.90;;;;;;10353327;28;20304;-78
2023/05/11 19:06:08;;;;;;;19.30;9.00;;;16.90;99.90;;;;;;10360346;28;20380;-78
2023/05/11 19:11:29;;;;;;;13.70;7.15;;;16.70;99.90;;;;;;10362249;28;20385;-77
2023/05/11 19:16:50;;;;;;;18.27;7.03;;;16.70;99.90;;;;;;10361967;28;20217;-78
2023/05/11 19:22:12;;;;;;;14.63;7.15;;;16.70;99.90;;;;;;10372012;28;20201;-77
2023/05/11 19:27:33;;;;;;;13.65;8.00;;;16.50;99.90;;;;;;10401804;28;20205;-78
2023/05/11 19:32:54;;;;;;;15.35;7.57;;;16.50;99.90;;;;;;10401813;28;20229;-77
2023/05/11 19:38:15;;;;;;;12.88;8.30;;;16.40;99.90;;;;;;10364092;28;20402;-78
2023/05/11 19:43:36;;;;;;;20.70;10.65;;;16.20;99.90;;;;;;10360447;28;20189;-76
2023/05/11 19:48:57;;;;;;;20.42;10.27;;;16.10;99.90;;;;;;10360547;28;20189;-77
2023/05/11 19:54:18;;;;;;;16.10;8.70;;;16.00;99.90;;;;;;10386800;28;20232;-75
2023/05/11 19:59:40;;;;;;;12.30;7.60;;;15.90;99.90;;;;;;10400630;28;20263;-79
2023/05/11 20:05:02;;;;;;;16.80;8.57;;;15.80;99.90;;;;;;10381793;28;20208;-78
2023/05/11 20:10:24;;;;;;;14.40;7.85;;;15.70;99.90;;;;;;10392104;28;20193;-77
2023/05/11 20:15:45;;;;;;;16.95;9.23;;;15.60;99.90;;;;;;10398712;28;20215;-78
2023/05/11 20:21:07;;;;;;;24.15;11.38;;;15.50;99.90;;;;;;10407614;28;20226;-77
2023/05/11 20:26:28;;;;;;;19.02;10.50;;;15.40;99.90;;;;;;10370266;28;20279;-78
2023/05/11 20:31:49;;;;;;;21.38;11.50;;;15.30;99.90;;;;;;10358284;28;20224;-78
2023/05/11 20:37:11;;;;;;;20.05;10.05;;;;;;;;;;10361850;28;20248;-77
2023/05/11 20:42:32;;;;;;;15.73;9.00;;;15.20;99.90;;;;;;10358222;28;20194;-78
2023/05/11 20:47:53;;;;;;;21.83;10.57;;;15.10;99.90;;;;;;10358345;28;20207;-78
2023/05/11 20:53:14;;;;;;;15.80;9.18;;;15.00;99.90;;;;;;10358417;28;20289;-78
2023/05/11 20:58:35;;;;;;;27.00;10.40;;;14.90;99.90;;;;;;10357051;28;20234;-79
2023/05/11 21:03:56;;;;;;;20.05;10.57;;;14.80;99.90;;;;;;10395911;28;20540;-78
2023/05/11 21:09:17;;;;;;;18.23;10.35;;;14.70;99.90;;;;;;10358692;28;20199;-80
2023/05/11 21:14:39;;;;;;;19.55;9.40;;;14.60;99.90;;;;;;10356443;28;20213;-79
2023/05/11 21:20:03;;;;;;;17.02;8.18;;;14.50;99.90;;;;;;10356939;28;20199;-78
2023/05/11 21:25:24;;;;;;;15.98;7.63;;;14.40;99.90;;;;;;10394169;28;20204;-79
2023/05/11 21:30:46;;;;;;;11.85;7.45;;;14.30;99.90;;;;;;10397330;28;20285;-75
2023/05/11 21:36:07;;;;;;;16.40;6.80;;;14.20;99.90;;;;;;10378835;28;20418;-78
2023/05/11 21:41:29;;;;;;;12.98;7.38;;;14.20;99.90;;;;;;10356044;28;20193;-79
2023/05/11 21:46:50;;;;;;;20.55;7.55;;;14.10;99.90;;;;;;10356282;28;20258;-78
2023/05/11 21:52:12;;;;;;;15.93;7.78;;;14.00;99.90;;;;;;10359187;28;20208;-78
2023/05/11 21:57:33;;;;;;;11.25;7.05;;;14.00;99.90;;;;;;10363246;28;20238;-78
2023/05/11 22:02:54;;;;;;;10.77;6.65;;;14.00;99.90;;;;;;10393751;28;20250;-79
2023/05/11 22:08:14;;;;;;;9.82;5.80;;;13.90;99.90;;;;;;10367118;28;20285;-78
2023/05/11 22:13:36;;;;;;;13.23;6.38;;;13.70;99.90;;;;;;10355308;28;20197;-79
2023/05/11 22:18:57;;;;;;;10.85;5.78;;;13.70;99.90;;;;;;10354939;28;20227;-79
2023/05/11 22:24:20;;;;;;;11.18;6.30;;;13.70;99.90;;;;;;10354296;28;20385;-79
2023/05/11 22:29:41;;;;;;;13.27;6.90;;;13.60;99.90;;;;;;10378858;28;20466;-79
2023/05/11 22:35:02;;;;;;;11.23;7.00;;;13.60;99.90;;;;;;10395880;28;20247;-78
2023/05/11 22:40:24;;;;;;;8.93;5.70;;;13.50;99.90;;;;;;10353108;28;20271;-78
2023/05/11 22:45:45;;;;;;;10.30;6.25;;;13.50;99.90;;;;;;10339719;28;20208;-77
2023/05/11 22:51:07;;;;;;;9.95;6.03;;;13.50;99.90;;;;;;10354499;28;20434;-78
2023/05/11 22:56:29;;;;;;;9.60;5.32;;;13.40;99.90;;;;;;10353710;28;20240;-77
2023/05/11 23:01:51;;;;;;;11.75;5.75;;;13.40;99.90;;;;;;10375406;28;20196;-78
2023/05/11 23:07:11;;;;;;;9.93;4.60;;;13.40;99.90;;;;;;10358223;28;20492;-76
2023/05/11 23:12:33;;;;;;;5.88;3.75;;;13.30;99.90;;;;;;10354003;28;20192;-77
2023/05/11 23:17:54;;;;;;;8.23;4.47;;;13.30;99.90;;;;;;10353908;28;20252;-78
2023/05/11 23:23:16;;;;;;;8.88;4.47;;;13.20;99.90;;;;;;10353242;28;20498;-80
2023/05/11 23:28:37;;;;;;;6.35;4.10;;;13.10;99.90;;;;;;10369185;28;20214;-77
2023/05/11 23:33:58;;;;;;;7.72;3.88;;;13.10;99.90;;;;;;10376309;28;20286;-78
2023/05/11 23:39:19;;;;;;;12.73;4.07;;;13.10;99.90;;;;;;10353384;28;20231;-78
2023/05/11 23:44:41;;;;;;;9.27;3.88;;;13.10;99.90;;;;;;10338783;28;20201;-79
2023/05/11 23:50:02;;;;;;;6.15;3.50;;;13.00;99.90;;;;;;10353786;28;20479;-78
2023/05/11 23:55:23;;;;;;;7.45;3.72;;;13.00;99.90;;;;;;10351314;28;20266;-78
